sensor_id;sensor_type;location;lat;lon;timestamp;noise_LAeq;noise_LA_min;noise_LA_max;noise_LA01;noise_LA95
36217;Laerm;22259;48.792;8.964;2023-02-28T00:02:24;43.76;39.92;47.41;;
36217;Laerm;22259;48.792;8.964;2023-02-28T00:04:49;43.62;40.16;48.09;;
36217;Laerm;22259;48.792;8.964;2023-02-28T00:07:18;43.39;40.31;46.27;;
36217;Laerm;22259;48.792;8.964;2023-02-28T00:09:44;53.92;40.41;70.76;;
36217;Laerm;22259;48.792;8.964;2023-02-28T00:12:09;43.15;40.31;46.20;;
36217;Laerm;22259;48.792;8.964;2023-02-28T00:14:35;43.41;40.16;48.20;;
36217;Laerm;22259;48.792;8.964;2023-02-28T00:17:01;42.67;39.75;46.29;;
36217;Laerm;22259;48.792;8.964;2023-02-28T00:19:26;43.84;41.00;48.20;;
36217;Laerm;22259;48.792;8.964;2023-02-28T00:21:51;43.60;40.82;46.96;;
36217;Laerm;22259;48.792;8.964;2023-02-28T00:24:17;49.00;40.60;67.58;;
36217;Laerm;22259;48.792;8.964;2023-02-28T00:26:42;53.24;40.46;71.05;;
36217;Laerm;22259;48.792;8.964;2023-02-28T00:29:08;44.09;41.59;48.27;;
36217;Laerm;22259;48.792;8.964;2023-02-28T00:31:33;43.61;39.81;47.97;;
36217;Laerm;22259;48.792;8.964;2023-02-28T00:33:58;44.37;40.67;52.44;;
36217;Laerm;22259;48.792;8.964;2023-02-28T00:36:24;44.04;40.79;47.34;;
36217;Laerm;22259;48.792;8.964;2023-02-28T00:38:49;43.64;40.60;46.20;;
36217;Laerm;22259;48.792;8.964;2023-02-28T00:41:14;42.73;39.78;45.27;;
36217;Laerm;22259;48.792;8.964;2023-02-28T00:43:40;48.56;39.84;62.71;;
36217;Laerm;22259;48.792;8.964;2023-02-28T00:46:06;43.79;40.87;51.41;;
36217;Laerm;22259;48.792;8.964;2023-02-28T00:48:31;43.35;40.46;46.87;;
36217;Laerm;22259;48.792;8.964;2023-02-28T00:50:57;43.23;40.85;45.38;;
36217;Laerm;22259;48.792;8.964;2023-02-28T00:53:22;42.87;39.73;46.73;;
36217;Laerm;22259;48.792;8.964;2023-02-28T00:55:48;42.72;39.78;46.03;;
36217;Laerm;22259;48.792;8.964;2023-02-28T00:58:14;43.59;40.64;46.69;;
36217;Laerm;22259;48.792;8.964;2023-02-28T01:00:39;43.20;40.05;48.00;;
36217;Laerm;22259;48.792;8.964;2023-02-28T01:03:04;43.77;40.95;46.40;;
36217;Laerm;22259;48.792;8.964;2023-02-28T01:05:30;43.59;40.73;49.29;;
36217;Laerm;22259;48.792;8.964;2023-02-28T01:07:55;44.31;41.16;51.31;;
36217;Laerm;22259;48.792;8.964;2023-02-28T01:10:20;43.64;41.02;46.24;;
36217;Laerm;22259;48.792;8.964;2023-02-28T01:12:46;43.91;41.51;46.79;;
36217;Laerm;22259;48.792;8.964;2023-02-28T01:15:11;43.32;40.89;46.13;;
36217;Laerm;22259;48.792;8.964;2023-02-28T01:17:37;44.28;40.62;48.79;;
36217;Laerm;22259;48.792;8.964;2023-02-28T01:20:02;43.44;40.76;45.95;;
36217;Laerm;22259;48.792;8.964;2023-02-28T01:22:27;42.93;40.16;45.34;;
36217;Laerm;22259;48.792;8.964;2023-02-28T01:24:53;43.38;40.76;49.78;;
36217;Laerm;22259;48.792;8.964;2023-02-28T01:27:19;43.84;40.80;48.12;;
36217;Laerm;22259;48.792;8.964;2023-02-28T01:29:44;43.85;39.78;48.06;;
36217;Laerm;22259;48.792;8.964;2023-02-28T01:32:09;43.37;40.00;47.58;;
36217;Laerm;22259;48.792;8.964;2023-02-28T01:34:35;43.64;39.64;55.63;;
36217;Laerm;22259;48.792;8.964;2023-02-28T01:37:00;43.69;40.33;47.96;;
36217;Laerm;22259;48.792;8.964;2023-02-28T01:39:26;42.55;40.00;44.94;;
36217;Laerm;22259;48.792;8.964;2023-02-28T01:41:52;43.81;40.90;46.89;;
36217;Laerm;22259;48.792;8.964;2023-02-28T01:47:01;43.50;39.92;46.63;;
36217;Laerm;22259;48.792;8.964;2023-02-28T01:49:27;43.39;40.00;47.03;;
36217;Laerm;22259;48.792;8.964;2023-02-28T01:51:53;43.77;41.14;46.85;;
36217;Laerm;22259;48.792;8.964;2023-02-28T01:54:30;43.55;41.00;46.62;;
36217;Laerm;22259;48.792;8.964;2023-02-28T01:57:01;44.22;41.40;47.81;;
36217;Laerm;22259;48.792;8.964;2023-02-28T01:59:29;43.49;40.87;48.07;;
36217;Laerm;22259;48.792;8.964;2023-02-28T02:01:57;44.25;40.67;53.87;;
36217;Laerm;22259;48.792;8.964;2023-02-28T02:04:23;44.50;41.57;48.32;;
36217;Laerm;22259;48.792;8.964;2023-02-28T02:06:50;43.67;40.91;46.12;;
36217;Laerm;22259;48.792;8.964;2023-02-28T02:09:15;44.21;40.80;49.14;;
36217;Laerm;22259;48.792;8.964;2023-02-28T02:11:42;43.91;41.64;48.02;;
36217;Laerm;22259;48.792;8.964;2023-02-28T02:34:46;44.27;40.62;48.55;;
36217;Laerm;22259;48.792;8.964;2023-02-28T02:37:59;43.98;40.95;46.65;;
36217;Laerm;22259;48.792;8.964;2023-02-28T02:40:48;44.56;42.04;49.67;;
36217;Laerm;22259;48.792;8.964;2023-02-28T02:43:18;44.69;42.14;49.40;;
36217;Laerm;22259;48.792;8.964;2023-02-28T02:45:45;44.11;41.46;48.14;;
36217;Laerm;22259;48.792;8.964;2023-02-28T02:48:14;44.58;41.73;49.37;;
36217;Laerm;22259;48.792;8.964;2023-02-28T02:50:42;44.20;41.42;48.16;;
36217;Laerm;22259;48.792;8.964;2023-02-28T02:53:09;44.61;42.47;48.61;;
36217;Laerm;22259;48.792;8.964;2023-02-28T02:55:37;44.57;42.24;48.89;;
36217;Laerm;22259;48.792;8.964;2023-02-28T02:58:04;44.27;41.82;50.77;;
36217;Laerm;22259;48.792;8.964;2023-02-28T03:00:33;44.19;41.40;48.17;;
36217;Laerm;22259;48.792;8.964;2023-02-28T03:02:59;44.14;41.64;48.80;;
36217;Laerm;22259;48.792;8.964;2023-02-28T03:05:28;43.83;41.16;47.87;;
36217;Laerm;22259;48.792;8.964;2023-02-28T03:07:55;43.69;40.95;49.29;;
36217;Laerm;22259;48.792;8.964;2023-02-28T03:10:31;43.69;41.68;47.11;;
36217;Laerm;22259;48.792;8.964;2023-02-28T03:13:10;44.04;40.85;48.46;;
36217;Laerm;22259;48.792;8.964;2023-02-28T03:15:48;44.00;40.73;48.89;;
36217;Laerm;22259;48.792;8.964;2023-02-28T03:18:24;44.00;40.95;47.94;;
36217;Laerm;22259;48.792;8.964;2023-02-28T03:21:06;43.99;40.93;48.07;;
36217;Laerm;22259;48.792;8.964;2023-02-28T03:23:42;44.79;42.47;49.63;;
36217;Laerm;22259;48.792;8.964;2023-02-28T03:26:18;44.75;42.35;50.51;;
36217;Laerm;22259;48.792;8.964;2023-02-28T03:32:29;44.82;42.50;48.87;;
36217;Laerm;22259;48.792;8.964;2023-02-28T03:35:06;44.80;42.01;48.88;;
36217;Laerm;22259;48.792;8.964;2023-02-28T03:37:35;45.06;42.24;49.74;;
36217;Laerm;22259;48.792;8.964;2023-02-28T03:40:03;44.71;42.11;48.95;;
36217;Laerm;22259;48.792;8.964;2023-02-28T03:42:31;44.78;42.11;48.82;;
36217;Laerm;22259;48.792;8.964;2023-02-28T03:45:18;44.85;42.32;50.93;;
36217;Laerm;22259;48.792;8.964;2023-02-28T03:47:52;45.42;42.97;49.60;;
36217;Laerm;22259;48.792;8.964;2023-02-28T03:50:21;45.96;43.44;50.28;;
36217;Laerm;22259;48.792;8.964;2023-02-28T03:52:54;45.24;42.35;53.49;;
36217;Laerm;22259;48.792;8.964;2023-02-28T03:55:20;45.54;42.88;49.56;;
36217;Laerm;22259;48.792;8.964;2023-02-28T04:00:31;52.28;43.01;68.17;;
36217;Laerm;22259;48.792;8.964;2023-02-28T04:02:59;44.91;42.79;47.87;;
36217;Laerm;22259;48.792;8.964;2023-02-28T04:05:24;44.93;42.16;48.83;;
36217;Laerm;22259;48.792;8.964;2023-02-28T04:07:50;45.42;43.13;48.55;;
36217;Laerm;22259;48.792;8.964;2023-02-28T04:10:16;44.96;42.50;49.50;;
36217;Laerm;22259;48.792;8.964;2023-02-28T04:12:42;45.23;42.41;50.10;;
36217;Laerm;22259;48.792;8.964;2023-02-28T04:15:07;45.62;42.85;50.09;;
36217;Laerm;22259;48.792;8.964;2023-02-28T04:17:33;45.55;43.08;50.85;;
36217;Laerm;22259;48.792;8.964;2023-02-28T04:19:58;53.31;43.04;68.12;;
36217;Laerm;22259;48.792;8.964;2023-02-28T04:22:24;45.62;42.83;53.74;;
36217;Laerm;22259;48.792;8.964;2023-02-28T04:24:52;44.99;42.76;49.02;;
36217;Laerm;22259;48.792;8.964;2023-02-28T04:27:19;45.84;43.19;50.00;;
36217;Laerm;22259;48.792;8.964;2023-02-28T04:29:45;44.95;42.79;48.75;;
36217;Laerm;22259;48.792;8.964;2023-02-28T04:32:10;53.17;42.85;68.76;;
36217;Laerm;22259;48.792;8.964;2023-02-28T04:34:35;45.56;42.92;50.66;;
36217;Laerm;22259;48.792;8.964;2023-02-28T04:37:01;45.79;43.17;49.97;;
36217;Laerm;22259;48.792;8.964;2023-02-28T04:39:28;45.32;42.76;48.72;;
36217;Laerm;22259;48.792;8.964;2023-02-28T04:41:53;45.10;42.38;48.37;;
36217;Laerm;22259;48.792;8.964;2023-02-28T04:44:18;45.54;43.05;51.47;;
36217;Laerm;22259;48.792;8.964;2023-02-28T04:46:47;44.93;42.56;47.14;;
36217;Laerm;22259;48.792;8.964;2023-02-28T04:49:12;47.70;42.90;66.14;;
36217;Laerm;22259;48.792;8.964;2023-02-28T04:51:38;53.67;42.53;69.41;;
36217;Laerm;22259;48.792;8.964;2023-02-28T04:54:04;46.48;42.88;53.06;;
36217;Laerm;22259;48.792;8.964;2023-02-28T04:56:29;45.17;42.35;55.39;;
36217;Laerm;22259;48.792;8.964;2023-02-28T04:58:55;46.38;42.98;56.15;;
36217;Laerm;22259;48.792;8.964;2023-02-28T05:01:30;52.42;42.65;66.80;;
36217;Laerm;22259;48.792;8.964;2023-02-28T05:03:57;44.99;42.90;50.05;;
36217;Laerm;22259;48.792;8.964;2023-02-28T05:06:24;45.15;43.12;48.37;;
36217;Laerm;22259;48.792;8.964;2023-02-28T05:08:50;44.92;42.76;48.10;;
36217;Laerm;22259;48.792;8.964;2023-02-28T05:11:22;45.22;42.75;47.67;;
36217;Laerm;22259;48.792;8.964;2023-02-28T05:13:49;45.46;42.96;48.66;;
36217;Laerm;22259;48.792;8.964;2023-02-28T05:16:15;45.22;42.46;48.44;;
36217;Laerm;22259;48.792;8.964;2023-02-28T05:18:40;45.32;43.09;49.09;;
36217;Laerm;22259;48.792;8.964;2023-02-28T05:21:06;52.95;42.65;68.88;;
36217;Laerm;22259;48.792;8.964;2023-02-28T05:23:48;45.49;42.90;49.52;;
36217;Laerm;22259;48.792;8.964;2023-02-28T05:26:14;47.44;43.24;60.04;;
36217;Laerm;22259;48.792;8.964;2023-02-28T05:28:39;46.35;43.26;51.62;;
36217;Laerm;22259;48.792;8.964;2023-02-28T05:31:04;53.29;43.76;68.73;;
36217;Laerm;22259;48.792;8.964;2023-02-28T05:33:30;45.57;42.75;48.49;;
36217;Laerm;22259;48.792;8.964;2023-02-28T05:35:55;46.57;43.54;71.96;;
36217;Laerm;22259;48.792;8.964;2023-02-28T05:38:21;46.16;44.05;48.62;;
36217;Laerm;22259;48.792;8.964;2023-02-28T05:40:46;45.68;43.44;53.44;;
36217;Laerm;22259;48.792;8.964;2023-02-28T05:43:11;46.03;43.23;52.05;;
36217;Laerm;22259;48.792;8.964;2023-02-28T05:45:37;46.14;43.81;56.21;;
36217;Laerm;22259;48.792;8.964;2023-02-28T05:48:02;45.87;43.48;51.94;;
36217;Laerm;22259;48.792;8.964;2023-02-28T05:50:28;52.99;43.82;67.36;;
36217;Laerm;22259;48.792;8.964;2023-02-28T05:52:53;45.14;42.53;48.31;;
36217;Laerm;22259;48.792;8.964;2023-02-28T05:55:18;45.75;43.32;56.53;;
36217;Laerm;22259;48.792;8.964;2023-02-28T05:57:44;46.33;43.71;54.30;;
36217;Laerm;22259;48.792;8.964;2023-02-28T06:00:10;53.06;43.44;68.22;;
36217;Laerm;22259;48.792;8.964;2023-02-28T06:02:35;46.74;43.13;64.20;;
36217;Laerm;22259;48.792;8.964;2023-02-28T06:05:01;49.15;43.10;71.99;;
36217;Laerm;22259;48.792;8.964;2023-02-28T06:07:26;45.95;43.38;55.58;;
36217;Laerm;22259;48.792;8.964;2023-02-28T06:09:52;46.84;43.74;65.14;;
36217;Laerm;22259;48.792;8.964;2023-02-28T06:12:17;49.94;43.29;69.30;;
36217;Laerm;22259;48.792;8.964;2023-02-28T06:14:42;51.09;43.83;65.88;;
36217;Laerm;22259;48.792;8.964;2023-02-28T06:17:08;52.61;43.91;67.27;;
36217;Laerm;22259;48.792;8.964;2023-02-28T06:19:34;53.04;43.53;68.29;;
36217;Laerm;22259;48.792;8.964;2023-02-28T06:21:59;46.61;43.44;59.63;;
36217;Laerm;22259;48.792;8.964;2023-02-28T06:24:25;47.30;43.78;66.69;;
36217;Laerm;22259;48.792;8.964;2023-02-28T06:26:53;47.63;43.66;64.41;;
36217;Laerm;22259;48.792;8.964;2023-02-28T06:29:18;47.00;44.00;61.30;;
36217;Laerm;22259;48.792;8.964;2023-02-28T06:31:44;54.62;44.60;70.20;;
36217;Laerm;22259;48.792;8.964;2023-02-28T06:34:10;48.35;44.42;57.96;;
36217;Laerm;22259;48.792;8.964;2023-02-28T06:36:37;48.30;45.55;54.37;;
36217;Laerm;22259;48.792;8.964;2023-02-28T06:39:02;49.01;44.92;61.05;;
36217;Laerm;22259;48.792;8.964;2023-02-28T06:41:28;49.71;44.29;60.61;;
36217;Laerm;22259;48.792;8.964;2023-02-28T06:43:53;57.38;45.57;65.40;;
36217;Laerm;22259;48.792;8.964;2023-02-28T06:46:19;59.10;45.89;67.07;;
36217;Laerm;22259;48.792;8.964;2023-02-28T06:48:44;58.82;45.93;66.97;;
36217;Laerm;22259;48.792;8.964;2023-02-28T06:51:11;58.00;45.84;72.50;;
36217;Laerm;22259;48.792;8.964;2023-02-28T06:53:38;55.72;45.34;63.24;;
36217;Laerm;22259;48.792;8.964;2023-02-28T06:56:04;55.74;45.14;66.15;;
36217;Laerm;22259;48.792;8.964;2023-02-28T06:58:31;55.74;45.62;64.86;;
36217;Laerm;22259;48.792;8.964;2023-02-28T07:00:56;57.41;46.81;68.73;;
36217;Laerm;22259;48.792;8.964;2023-02-28T07:03:22;55.08;44.74;64.49;;
36217;Laerm;22259;48.792;8.964;2023-02-28T07:05:48;54.28;44.33;62.12;;
36217;Laerm;22259;48.792;8.964;2023-02-28T07:08:13;53.96;44.82;63.92;;
36217;Laerm;22259;48.792;8.964;2023-02-28T07:10:39;50.26;44.64;76.49;;
36217;Laerm;22259;48.792;8.964;2023-02-28T07:13:05;50.07;45.08;69.11;;
36217;Laerm;22259;48.792;8.964;2023-02-28T07:15:31;51.60;45.12;63.80;;
36217;Laerm;22259;48.792;8.964;2023-02-28T07:17:56;53.28;45.20;64.10;;
36217;Laerm;22259;48.792;8.964;2023-02-28T07:20:22;54.09;44.68;68.65;;
36217;Laerm;22259;48.792;8.964;2023-02-28T07:22:48;49.26;44.65;64.18;;
36217;Laerm;22259;48.792;8.964;2023-02-28T07:25:20;47.25;44.13;55.68;;
36217;Laerm;22259;48.792;8.964;2023-02-28T07:27:46;47.75;44.15;59.81;;
36217;Laerm;22259;48.792;8.964;2023-02-28T07:30:12;53.36;44.15;71.01;;
36217;Laerm;22259;48.792;8.964;2023-02-28T07:32:37;46.43;43.82;52.64;;
36217;Laerm;22259;48.792;8.964;2023-02-28T07:35:03;47.89;44.06;55.23;;
36217;Laerm;22259;48.792;8.964;2023-02-28T07:37:28;49.42;44.46;66.69;;
36217;Laerm;22259;48.792;8.964;2023-02-28T07:39:56;46.55;43.94;56.16;;
36217;Laerm;22259;48.792;8.964;2023-02-28T07:42:22;49.10;44.10;61.71;;
36217;Laerm;22259;48.792;8.964;2023-02-28T07:44:47;51.86;44.74;61.30;;
36217;Laerm;22259;48.792;8.964;2023-02-28T07:47:12;50.52;44.24;61.35;;
36217;Laerm;22259;48.792;8.964;2023-02-28T07:49:38;55.07;44.37;70.00;;
36217;Laerm;22259;48.792;8.964;2023-02-28T07:52:04;47.15;44.13;59.26;;
36217;Laerm;22259;48.792;8.964;2023-02-28T07:54:30;46.59;43.54;61.10;;
36217;Laerm;22259;48.792;8.964;2023-02-28T07:56:55;46.07;43.08;57.97;;
36217;Laerm;22259;48.792;8.964;2023-02-28T07:59:21;48.35;43.28;59.48;;
36217;Laerm;22259;48.792;8.964;2023-02-28T08:01:46;54.43;43.28;72.67;;
36217;Laerm;22259;48.792;8.964;2023-02-28T08:04:11;45.82;43.22;55.52;;
36217;Laerm;22259;48.792;8.964;2023-02-28T08:06:37;45.32;42.49;56.43;;
36217;Laerm;22259;48.792;8.964;2023-02-28T08:09:02;45.85;42.04;56.82;;
36217;Laerm;22259;48.792;8.964;2023-02-28T08:11:28;45.91;43.19;52.58;;
36217;Laerm;22259;48.792;8.964;2023-02-28T08:13:54;45.54;42.86;55.37;;
36217;Laerm;22259;48.792;8.964;2023-02-28T08:16:19;45.66;42.62;56.64;;
36217;Laerm;22259;48.792;8.964;2023-02-28T08:18:47;53.04;44.10;69.27;;
36217;Laerm;22259;48.792;8.964;2023-02-28T08:21:12;46.30;43.23;55.36;;
36217;Laerm;22259;48.792;8.964;2023-02-28T08:23:37;49.43;43.55;60.22;;
36217;Laerm;22259;48.792;8.964;2023-02-28T08:26:03;51.31;44.17;63.04;;
36217;Laerm;22259;48.792;8.964;2023-02-28T08:28:29;51.59;43.77;65.64;;
36217;Laerm;22259;48.792;8.964;2023-02-28T08:30:55;55.80;43.27;69.73;;
36217;Laerm;22259;48.792;8.964;2023-02-28T08:33:20;50.98;43.41;70.00;;
36217;Laerm;22259;48.792;8.964;2023-02-28T08:35:46;48.28;43.18;61.72;;
36217;Laerm;22259;48.792;8.964;2023-02-28T08:38:11;46.46;43.38;57.07;;
36217;Laerm;22259;48.792;8.964;2023-02-28T08:40:37;46.62;43.58;59.37;;
36217;Laerm;22259;48.792;8.964;2023-02-28T08:43:02;53.39;43.55;83.14;;
36217;Laerm;22259;48.792;8.964;2023-02-28T08:45:27;45.34;43.15;49.97;;
36217;Laerm;22259;48.792;8.964;2023-02-28T08:47:54;45.84;42.61;61.46;;
36217;Laerm;22259;48.792;8.964;2023-02-28T08:50:19;53.87;43.02;70.47;;
36217;Laerm;22259;48.792;8.964;2023-02-28T08:52:45;45.74;42.94;61.70;;
36217;Laerm;22259;48.792;8.964;2023-02-28T08:55:10;47.44;42.76;66.79;;
36217;Laerm;22259;48.792;8.964;2023-02-28T08:57:35;46.35;42.86;62.56;;
36217;Laerm;22259;48.792;8.964;2023-02-28T09:00:01;52.78;43.31;66.54;;
36217;Laerm;22259;48.792;8.964;2023-02-28T09:02:29;47.78;43.29;60.00;;
36217;Laerm;22259;48.792;8.964;2023-02-28T09:04:55;45.93;43.41;57.98;;
36217;Laerm;22259;48.792;8.964;2023-02-28T09:07:20;46.73;42.59;57.72;;
36217;Laerm;22259;48.792;8.964;2023-02-28T09:09:46;46.71;42.81;57.26;;
36217;Laerm;22259;48.792;8.964;2023-02-28T09:12:23;49.09;43.22;58.81;;
36217;Laerm;22259;48.792;8.964;2023-02-28T09:14:49;48.53;42.29;64.96;;
36217;Laerm;22259;48.792;8.964;2023-02-28T09:17:15;50.19;42.96;62.67;;
36217;Laerm;22259;48.792;8.964;2023-02-28T09:19:40;53.25;42.97;68.37;;
36217;Laerm;22259;48.792;8.964;2023-02-28T09:22:05;50.43;43.37;64.06;;
36217;Laerm;22259;48.792;8.964;2023-02-28T09:24:31;47.46;43.22;61.40;;
36217;Laerm;22259;48.792;8.964;2023-02-28T09:26:56;45.77;43.21;56.37;;
36217;Laerm;22259;48.792;8.964;2023-02-28T09:29:22;45.82;42.62;58.73;;
36217;Laerm;22259;48.792;8.964;2023-02-28T09:31:47;53.24;41.98;70.57;;
36217;Laerm;22259;48.792;8.964;2023-02-28T09:34:12;45.24;42.72;52.90;;
36217;Laerm;22259;48.792;8.964;2023-02-28T09:36:38;45.88;43.04;56.88;;
36217;Laerm;22259;48.792;8.964;2023-02-28T09:39:03;44.96;43.00;52.90;;
36217;Laerm;22259;48.792;8.964;2023-02-28T09:41:30;45.15;42.32;51.48;;
36217;Laerm;22259;48.792;8.964;2023-02-28T09:44:00;45.82;43.14;59.37;;
36217;Laerm;22259;48.792;8.964;2023-02-28T09:46:40;45.43;42.46;55.94;;
36217;Laerm;22259;48.792;8.964;2023-02-28T09:49:11;53.39;42.93;70.88;;
36217;Laerm;22259;48.792;8.964;2023-02-28T09:52:21;45.69;42.85;58.11;;
36217;Laerm;22259;48.792;8.964;2023-02-28T09:54:49;46.33;42.69;72.86;;
36217;Laerm;22259;48.792;8.964;2023-02-28T09:57:17;45.32;43.12;61.14;;
36217;Laerm;22259;48.792;8.964;2023-02-28T10:00:18;52.38;42.72;68.48;;
36217;Laerm;22259;48.792;8.964;2023-02-28T10:03:06;46.04;42.79;64.85;;
36217;Laerm;22259;48.792;8.964;2023-02-28T10:05:43;45.61;42.21;67.11;;
36217;Laerm;22259;48.792;8.964;2023-02-28T10:08:25;46.41;43.29;56.43;;
36217;Laerm;22259;48.792;8.964;2023-02-28T10:10:54;45.45;42.76;52.69;;
36217;Laerm;22259;48.792;8.964;2023-02-28T10:17:13;49.56;42.64;77.04;;
36217;Laerm;22259;48.792;8.964;2023-02-28T10:19:42;52.38;42.97;73.35;;
36217;Laerm;22259;48.792;8.964;2023-02-28T10:22:29;45.58;42.72;51.48;;
36217;Laerm;22259;48.792;8.964;2023-02-28T10:24:59;46.42;43.00;62.33;;
36217;Laerm;22259;48.792;8.964;2023-02-28T10:27:33;47.38;42.92;60.27;;
36217;Laerm;22259;48.792;8.964;2023-02-28T10:30:00;53.82;43.41;69.18;;
36217;Laerm;22259;48.792;8.964;2023-02-28T10:32:30;49.76;43.45;64.52;;
36217;Laerm;22259;48.792;8.964;2023-02-28T10:38:05;45.51;42.72;50.57;;
36217;Laerm;22259;48.792;8.964;2023-02-28T10:40:38;45.42;42.58;53.37;;
36217;Laerm;22259;48.792;8.964;2023-02-28T10:43:04;46.63;43.28;60.48;;
36217;Laerm;22259;48.792;8.964;2023-02-28T10:45:31;46.32;42.64;58.98;;
36217;Laerm;22259;48.792;8.964;2023-02-28T10:51:57;52.17;43.28;68.39;;
36217;Laerm;22259;48.792;8.964;2023-02-28T10:54:35;47.50;43.93;59.96;;
36217;Laerm;22259;48.792;8.964;2023-02-28T10:57:06;47.15;42.93;65.86;;
36217;Laerm;22259;48.792;8.964;2023-02-28T10:59:32;48.67;43.04;64.77;;
36217;Laerm;22259;48.792;8.964;2023-02-28T11:01:57;52.75;42.72;67.60;;
36217;Laerm;22259;48.792;8.964;2023-02-28T11:07:19;45.80;42.58;57.32;;
36217;Laerm;22259;48.792;8.964;2023-02-28T11:09:46;46.60;42.88;63.25;;
36217;Laerm;22259;48.792;8.964;2023-02-28T11:12:20;45.59;42.71;52.44;;
36217;Laerm;22259;48.792;8.964;2023-02-28T11:14:47;45.63;42.58;59.26;;
36217;Laerm;22259;48.792;8.964;2023-02-28T11:17:24;45.83;42.83;54.61;;
36217;Laerm;22259;48.792;8.964;2023-02-28T11:19:51;51.66;42.94;68.25;;
36217;Laerm;22259;48.792;8.964;2023-02-28T11:22:18;46.33;42.29;66.05;;
36217;Laerm;22259;48.792;8.964;2023-02-28T11:24:45;46.36;41.89;59.23;;
36217;Laerm;22259;48.792;8.964;2023-02-28T11:31:30;52.00;42.49;69.15;;
36217;Laerm;22259;48.792;8.964;2023-02-28T11:33:55;45.47;42.53;55.40;;
36217;Laerm;22259;48.792;8.964;2023-02-28T11:36:25;45.31;42.66;53.38;;
36217;Laerm;22259;48.792;8.964;2023-02-28T11:38:51;45.27;41.64;53.21;;
36217;Laerm;22259;48.792;8.964;2023-02-28T11:41:21;45.36;42.49;56.74;;
36217;Laerm;22259;48.792;8.964;2023-02-28T11:44:12;44.50;42.30;58.22;;
36217;Laerm;22259;48.792;8.964;2023-02-28T11:46:43;44.66;41.59;57.07;;
36217;Laerm;22259;48.792;8.964;2023-02-28T11:49:36;49.18;42.35;68.78;;
36217;Laerm;22259;48.792;8.964;2023-02-28T12:03:25;49.44;42.08;67.61;;
36217;Laerm;22259;48.792;8.964;2023-02-28T12:15:28;45.47;41.92;64.32;;
36217;Laerm;22259;48.792;8.964;2023-02-28T12:18:10;45.67;42.54;63.84;;
36217;Laerm;22259;48.792;8.964;2023-02-28T12:20:38;52.59;42.26;70.30;;
36217;Laerm;22259;48.792;8.964;2023-02-28T12:23:18;47.86;42.52;62.18;;
36217;Laerm;22259;48.792;8.964;2023-02-28T12:28:35;44.44;42.08;54.42;;
36217;Laerm;22259;48.792;8.964;2023-02-28T12:31:08;53.02;42.04;69.09;;
36217;Laerm;22259;48.792;8.964;2023-02-28T12:33:35;44.40;41.96;54.99;;
36217;Laerm;22259;48.792;8.964;2023-02-28T12:36:04;44.51;42.11;59.51;;
36217;Laerm;22259;48.792;8.964;2023-02-28T12:38:41;45.16;42.32;61.43;;
36217;Laerm;22259;48.792;8.964;2023-02-28T12:42:10;45.25;42.44;58.08;;
36217;Laerm;22259;48.792;8.964;2023-02-28T12:44:44;46.78;42.13;74.60;;
36217;Laerm;22259;48.792;8.964;2023-02-28T12:47:13;44.50;41.61;54.60;;
36217;Laerm;22259;48.792;8.964;2023-02-28T12:49:41;53.68;42.64;68.79;;
36217;Laerm;22259;48.792;8.964;2023-02-28T12:52:09;52.49;42.16;71.75;;
36217;Laerm;22259;48.792;8.964;2023-02-28T12:57:29;44.84;41.94;53.75;;
36217;Laerm;22259;48.792;8.964;2023-02-28T13:00:00;52.71;42.93;67.79;;
36217;Laerm;22259;48.792;8.964;2023-02-28T13:11:53;46.27;42.22;74.09;;
36217;Laerm;22259;48.792;8.964;2023-02-28T13:14:23;44.80;42.46;56.23;;
36217;Laerm;22259;48.792;8.964;2023-02-28T13:17:11;44.84;42.88;55.43;;
36217;Laerm;22259;48.792;8.964;2023-02-28T13:19:42;52.86;43.39;70.37;;
36217;Laerm;22259;48.792;8.964;2023-02-28T13:22:35;45.20;42.56;50.92;;
36217;Laerm;22259;48.792;8.964;2023-02-28T13:25:05;45.23;42.11;60.79;;
36217;Laerm;22259;48.792;8.964;2023-02-28T13:28:24;48.12;42.86;61.23;;
36217;Laerm;22259;48.792;8.964;2023-02-28T13:31:22;53.03;42.59;69.44;;
36217;Laerm;22259;48.792;8.964;2023-02-28T13:36:34;45.26;42.13;54.40;;
36217;Laerm;22259;48.792;8.964;2023-02-28T13:39:00;45.24;42.14;57.69;;
36217;Laerm;22259;48.792;8.964;2023-02-28T13:44:25;44.98;42.09;65.86;;
36217;Laerm;22259;48.792;8.964;2023-02-28T13:47:19;44.35;41.94;56.05;;
36217;Laerm;22259;48.792;8.964;2023-02-28T13:49:45;52.41;41.55;69.06;;
36217;Laerm;22259;48.792;8.964;2023-02-28T13:52:14;44.42;41.72;48.08;;
36217;Laerm;22259;48.792;8.964;2023-02-28T14:00:16;52.83;42.11;70.57;;
36217;Laerm;22259;48.792;8.964;2023-02-28T14:02:47;43.77;40.73;63.89;;
36217;Laerm;22259;48.792;8.964;2023-02-28T14:05:17;50.10;40.89;66.67;;
36217;Laerm;22259;48.792;8.964;2023-02-28T14:07:48;44.24;41.63;51.01;;
36217;Laerm;22259;48.792;8.964;2023-02-28T14:10:21;45.66;41.10;57.95;;
36217;Laerm;22259;48.792;8.964;2023-02-28T14:16:41;44.98;42.13;52.84;;
36217;Laerm;22259;48.792;8.964;2023-02-28T14:19:27;53.10;42.03;70.13;;
36217;Laerm;22259;48.792;8.964;2023-02-28T14:22:12;48.10;42.09;64.82;;
36217;Laerm;22259;48.792;8.964;2023-02-28T14:27:32;46.07;42.61;56.91;;
36217;Laerm;22259;48.792;8.964;2023-02-28T14:30:11;53.18;42.56;69.46;;
36217;Laerm;22259;48.792;8.964;2023-02-28T14:39:24;47.51;42.88;63.93;;
36217;Laerm;22259;48.792;8.964;2023-02-28T14:41:50;46.46;42.61;62.64;;
36217;Laerm;22259;48.792;8.964;2023-02-28T14:47:00;45.81;41.70;55.13;;
36217;Laerm;22259;48.792;8.964;2023-02-28T14:49:32;54.45;42.41;70.74;;
36217;Laerm;22259;48.792;8.964;2023-02-28T14:52:19;49.06;42.58;62.90;;
36217;Laerm;22259;48.792;8.964;2023-02-28T14:54:45;46.86;42.09;57.11;;
36217;Laerm;22259;48.792;8.964;2023-02-28T14:57:22;51.19;42.71;64.74;;
36217;Laerm;22259;48.792;8.964;2023-02-28T14:59:56;52.72;42.86;70.12;;
36217;Laerm;22259;48.792;8.964;2023-02-28T15:02:22;46.07;42.66;66.31;;
36217;Laerm;22259;48.792;8.964;2023-02-28T15:04:55;45.87;42.86;59.68;;
36217;Laerm;22259;48.792;8.964;2023-02-28T15:07:21;45.23;42.09;61.18;;
36217;Laerm;22259;48.792;8.964;2023-02-28T15:10:09;47.18;42.29;71.32;;
36217;Laerm;22259;48.792;8.964;2023-02-28T15:12:35;46.18;43.09;59.21;;
36217;Laerm;22259;48.792;8.964;2023-02-28T15:15:02;48.20;43.29;66.11;;
36217;Laerm;22259;48.792;8.964;2023-02-28T15:17:27;48.08;42.72;65.18;;
36217;Laerm;22259;48.792;8.964;2023-02-28T15:19:53;52.78;42.24;66.57;;
36217;Laerm;22259;48.792;8.964;2023-02-28T15:22:22;47.48;42.50;64.55;;
36217;Laerm;22259;48.792;8.964;2023-02-28T15:24:50;46.53;42.46;64.84;;
36217;Laerm;22259;48.792;8.964;2023-02-28T15:27:29;48.15;42.30;64.94;;
36217;Laerm;22259;48.792;8.964;2023-02-28T15:30:07;54.32;42.89;70.28;;
36217;Laerm;22259;48.792;8.964;2023-02-28T15:32:36;48.14;42.89;61.57;;
36217;Laerm;22259;48.792;8.964;2023-02-28T15:35:20;47.70;43.09;69.22;;
36217;Laerm;22259;48.792;8.964;2023-02-28T15:37:55;49.34;42.41;66.23;;
36217;Laerm;22259;48.792;8.964;2023-02-28T15:40:28;47.74;41.99;64.34;;
36217;Laerm;22259;48.792;8.964;2023-02-28T15:43:07;48.65;42.53;68.48;;
36217;Laerm;22259;48.792;8.964;2023-02-28T15:45:52;50.14;43.94;74.36;;
36217;Laerm;22259;48.792;8.964;2023-02-28T15:48:20;53.80;43.19;69.43;;